sensor_id;sensor_type;location;lat;lon;timestamp;P1;durP1;ratioP1;P2;durP2;ratioP2
7116;SDS011;3600;48.568;7.870;2023-04-06T00:00:34;10.33;;;7.03;;
7116;SDS011;3600;48.568;7.870;2023-04-06T00:03:00;8.10;;;6.60;;
7116;SDS011;3600;48.568;7.870;2023-04-06T00:05:27;6.87;;;6.23;;
7116;SDS011;3600;48.568;7.870;2023-04-06T00:07:57;8.00;;;6.60;;
7116;SDS011;3600;48.568;7.870;2023-04-06T00:10:24;7.10;;;6.33;;
7116;SDS011;3600;48.568;7.870;2023-04-06T00:12:51;8.57;;;6.63;;
7116;SDS011;3600;48.568;7.870;2023-04-06T00:15:18;7.50;;;6.77;;
7116;SDS011;3600;48.568;7.870;2023-04-06T00:17:46;7.13;;;6.27;;
7116;SDS011;3600;48.568;7.870;2023-04-06T00:20:12;6.73;;;6.10;;
7116;SDS011;3600;48.568;7.870;2023-04-06T00:22:39;7.97;;;5.93;;
7116;SDS011;3600;48.568;7.870;2023-04-06T00:25:06;7.10;;;6.40;;
7116;SDS011;3600;48.568;7.870;2023-04-06T00:27:33;7.20;;;6.53;;
7116;SDS011;3600;48.568;7.870;2023-04-06T00:30:00;6.70;;;6.00;;
7116;SDS011;3600;48.568;7.870;2023-04-06T00:32:27;7.70;;;6.60;;
7116;SDS011;3600;48.568;7.870;2023-04-06T00:34:54;8.20;;;6.40;;
7116;SDS011;3600;48.568;7.870;2023-04-06T00:37:21;7.50;;;6.70;;
7116;SDS011;3600;48.568;7.870;2023-04-06T00:39:47;9.73;;;6.27;;
7116;SDS011;3600;48.568;7.870;2023-04-06T00:42:14;8.03;;;6.33;;
7116;SDS011;3600;48.568;7.870;2023-04-06T00:44:41;8.10;;;6.30;;
7116;SDS011;3600;48.568;7.870;2023-04-06T00:47:08;7.60;;;6.10;;
7116;SDS011;3600;48.568;7.870;2023-04-06T00:49:35;6.23;;;5.63;;
7116;SDS011;3600;48.568;7.870;2023-04-06T00:52:02;9.90;;;6.27;;
7116;SDS011;3600;48.568;7.870;2023-04-06T00:54:29;6.10;;;5.50;;
7116;SDS011;3600;48.568;7.870;2023-04-06T00:56:56;6.00;;;5.27;;
7116;SDS011;3600;48.568;7.870;2023-04-06T00:59:23;7.23;;;4.93;;
7116;SDS011;3600;48.568;7.870;2023-04-06T01:01:50;5.57;;;4.97;;
7116;SDS011;3600;48.568;7.870;2023-04-06T01:04:17;5.60;;;5.17;;
7116;SDS011;3600;48.568;7.870;2023-04-06T01:06:44;5.67;;;5.07;;
7116;SDS011;3600;48.568;7.870;2023-04-06T01:09:11;6.43;;;5.33;;
7116;SDS011;3600;48.568;7.870;2023-04-06T01:11:38;5.27;;;4.53;;
7116;SDS011;3600;48.568;7.870;2023-04-06T01:14:05;5.67;;;5.03;;
7116;SDS011;3600;48.568;7.870;2023-04-06T01:16:32;4.80;;;4.30;;
7116;SDS011;3600;48.568;7.870;2023-04-06T01:18:59;5.67;;;5.07;;
7116;SDS011;3600;48.568;7.870;2023-04-06T01:21:26;4.97;;;4.60;;
7116;SDS011;3600;48.568;7.870;2023-04-06T01:23:52;5.50;;;4.60;;
7116;SDS011;3600;48.568;7.870;2023-04-06T01:26:19;5.10;;;4.60;;
7116;SDS011;3600;48.568;7.870;2023-04-06T01:28:46;5.07;;;4.57;;
7116;SDS011;3600;48.568;7.870;2023-04-06T01:31:13;4.80;;;4.40;;
7116;SDS011;3600;48.568;7.870;2023-04-06T01:33:39;5.10;;;4.57;;
7116;SDS011;3600;48.568;7.870;2023-04-06T01:36:06;5.87;;;4.87;;
7116;SDS011;3600;48.568;7.870;2023-04-06T01:38:33;5.10;;;4.70;;
7116;SDS011;3600;48.568;7.870;2023-04-06T01:41:00;5.47;;;4.57;;
7116;SDS011;3600;48.568;7.870;2023-04-06T01:43:27;4.93;;;4.27;;
7116;SDS011;3600;48.568;7.870;2023-04-06T01:45:54;4.60;;;4.10;;
7116;SDS011;3600;48.568;7.870;2023-04-06T01:48:21;6.27;;;4.37;;
7116;SDS011;3600;48.568;7.870;2023-04-06T01:50:48;5.50;;;5.00;;
7116;SDS011;3600;48.568;7.870;2023-04-06T01:53:14;5.20;;;4.80;;
7116;SDS011;3600;48.568;7.870;2023-04-06T01:55:42;5.43;;;4.90;;
7116;SDS011;3600;48.568;7.870;2023-04-06T01:58:09;9.47;;;5.07;;
7116;SDS011;3600;48.568;7.870;2023-04-06T02:00:35;6.53;;;5.43;;
7116;SDS011;3600;48.568;7.870;2023-04-06T02:03:02;8.43;;;5.50;;
7116;SDS011;3600;48.568;7.870;2023-04-06T02:05:30;5.97;;;5.43;;
7116;SDS011;3600;48.568;7.870;2023-04-06T02:07:59;5.53;;;5.03;;
7116;SDS011;3600;48.568;7.870;2023-04-06T02:10:26;5.93;;;5.30;;
7116;SDS011;3600;48.568;7.870;2023-04-06T02:12:52;8.10;;;5.30;;
7116;SDS011;3600;48.568;7.870;2023-04-06T02:15:19;6.77;;;5.20;;
7116;SDS011;3600;48.568;7.870;2023-04-06T02:17:46;5.60;;;4.90;;
7116;SDS011;3600;48.568;7.870;2023-04-06T02:20:12;4.77;;;4.47;;
7116;SDS011;3600;48.568;7.870;2023-04-06T02:22:39;6.13;;;5.03;;
7116;SDS011;3600;48.568;7.870;2023-04-06T02:25:06;4.93;;;4.50;;
7116;SDS011;3600;48.568;7.870;2023-04-06T02:27:33;6.57;;;5.40;;
7116;SDS011;3600;48.568;7.870;2023-04-06T02:30:00;5.60;;;4.93;;
7116;SDS011;3600;48.568;7.870;2023-04-06T02:32:28;5.03;;;4.63;;
7116;SDS011;3600;48.568;7.870;2023-04-06T02:34:54;5.60;;;5.00;;
7116;SDS011;3600;48.568;7.870;2023-04-06T02:37:21;5.83;;;5.27;;
7116;SDS011;3600;48.568;7.870;2023-04-06T02:39:50;8.70;;;5.37;;
7116;SDS011;3600;48.568;7.870;2023-04-06T02:42:16;6.13;;;5.50;;
7116;SDS011;3600;48.568;7.870;2023-04-06T02:44:43;5.80;;;5.27;;
7116;SDS011;3600;48.568;7.870;2023-04-06T02:47:10;6.70;;;5.63;;
7116;SDS011;3600;48.568;7.870;2023-04-06T02:49:37;6.57;;;5.50;;
7116;SDS011;3600;48.568;7.870;2023-04-06T02:52:04;6.20;;;5.57;;
7116;SDS011;3600;48.568;7.870;2023-04-06T02:54:31;6.27;;;5.67;;
7116;SDS011;3600;48.568;7.870;2023-04-06T02:56:57;7.23;;;6.00;;
7116;SDS011;3600;48.568;7.870;2023-04-06T02:59:24;7.23;;;5.80;;
7116;SDS011;3600;48.568;7.870;2023-04-06T03:01:51;7.43;;;5.83;;
7116;SDS011;3600;48.568;7.870;2023-04-06T03:04:18;6.73;;;5.90;;
7116;SDS011;3600;48.568;7.870;2023-04-06T03:06:45;8.87;;;6.20;;
7116;SDS011;3600;48.568;7.870;2023-04-06T03:09:12;7.20;;;5.83;;
7116;SDS011;3600;48.568;7.870;2023-04-06T03:11:40;7.23;;;5.70;;
7116;SDS011;3600;48.568;7.870;2023-04-06T03:14:07;6.67;;;5.27;;
7116;SDS011;3600;48.568;7.870;2023-04-06T03:16:33;7.23;;;6.30;;
7116;SDS011;3600;48.568;7.870;2023-04-06T03:19:00;8.07;;;6.60;;
7116;SDS011;3600;48.568;7.870;2023-04-06T03:21:27;5.93;;;5.40;;
7116;SDS011;3600;48.568;7.870;2023-04-06T03:23:54;8.87;;;6.57;;
7116;SDS011;3600;48.568;7.870;2023-04-06T03:26:20;8.87;;;6.27;;
7116;SDS011;3600;48.568;7.870;2023-04-06T03:28:48;7.57;;;6.10;;
7116;SDS011;3600;48.568;7.870;2023-04-06T03:31:15;5.90;;;5.40;;
7116;SDS011;3600;48.568;7.870;2023-04-06T03:33:41;5.63;;;5.10;;
7116;SDS011;3600;48.568;7.870;2023-04-06T03:36:08;7.20;;;5.00;;
7116;SDS011;3600;48.568;7.870;2023-04-06T03:38:35;6.10;;;5.43;;
7116;SDS011;3600;48.568;7.870;2023-04-06T03:41:04;5.63;;;5.03;;
7116;SDS011;3600;48.568;7.870;2023-04-06T03:43:31;6.87;;;5.53;;
7116;SDS011;3600;48.568;7.870;2023-04-06T03:45:58;5.60;;;4.83;;
7116;SDS011;3600;48.568;7.870;2023-04-06T03:48:24;6.43;;;5.50;;
7116;SDS011;3600;48.568;7.870;2023-04-06T03:50:51;4.97;;;4.47;;
7116;SDS011;3600;48.568;7.870;2023-04-06T03:53:18;5.97;;;5.33;;
7116;SDS011;3600;48.568;7.870;2023-04-06T03:55:45;5.83;;;5.17;;
7116;SDS011;3600;48.568;7.870;2023-04-06T03:58:11;7.13;;;5.43;;
7116;SDS011;3600;48.568;7.870;2023-04-06T04:00:38;6.17;;;4.77;;
7116;SDS011;3600;48.568;7.870;2023-04-06T04:03:05;4.97;;;4.53;;
7116;SDS011;3600;48.568;7.870;2023-04-06T04:05:32;5.70;;;5.20;;
7116;SDS011;3600;48.568;7.870;2023-04-06T04:07:58;7.07;;;5.00;;
7116;SDS011;3600;48.568;7.870;2023-04-06T04:10:25;5.20;;;4.70;;
7116;SDS011;3600;48.568;7.870;2023-04-06T04:12:52;5.60;;;5.07;;
7116;SDS011;3600;48.568;7.870;2023-04-06T04:15:18;6.13;;;4.63;;
7116;SDS011;3600;48.568;7.870;2023-04-06T04:17:45;5.70;;;5.20;;
7116;SDS011;3600;48.568;7.870;2023-04-06T04:20:15;6.13;;;5.30;;
7116;SDS011;3600;48.568;7.870;2023-04-06T04:22:42;6.33;;;5.07;;
7116;SDS011;3600;48.568;7.870;2023-04-06T04:25:09;5.00;;;4.53;;
7116;SDS011;3600;48.568;7.870;2023-04-06T04:27:36;5.03;;;4.50;;
7116;SDS011;3600;48.568;7.870;2023-04-06T04:30:03;6.03;;;5.27;;
7116;SDS011;3600;48.568;7.870;2023-04-06T04:32:30;12.10;;;10.03;;
7116;SDS011;3600;48.568;7.870;2023-04-06T04:34:57;10.50;;;7.73;;
7116;SDS011;3600;48.568;7.870;2023-04-06T04:37:23;9.73;;;8.80;;
7116;SDS011;3600;48.568;7.870;2023-04-06T04:39:50;8.20;;;7.40;;
7116;SDS011;3600;48.568;7.870;2023-04-06T04:42:17;8.47;;;7.67;;
7116;SDS011;3600;48.568;7.870;2023-04-06T04:44:43;6.33;;;5.73;;
7116;SDS011;3600;48.568;7.870;2023-04-06T04:47:10;5.93;;;5.23;;
7116;SDS011;3600;48.568;7.870;2023-04-06T04:49:37;5.70;;;5.17;;
7116;SDS011;3600;48.568;7.870;2023-04-06T04:52:04;6.07;;;5.47;;
7116;SDS011;3600;48.568;7.870;2023-04-06T04:54:30;6.27;;;5.67;;
7116;SDS011;3600;48.568;7.870;2023-04-06T04:56:57;6.53;;;5.00;;
7116;SDS011;3600;48.568;7.870;2023-04-06T04:59:24;9.40;;;5.30;;
7116;SDS011;3600;48.568;7.870;2023-04-06T05:01:50;6.10;;;5.00;;
7116;SDS011;3600;48.568;7.870;2023-04-06T05:04:21;8.50;;;5.40;;
7116;SDS011;3600;48.568;7.870;2023-04-06T05:06:48;6.10;;;5.17;;
7116;SDS011;3600;48.568;7.870;2023-04-06T05:09:14;7.30;;;5.17;;
7116;SDS011;3600;48.568;7.870;2023-04-06T05:11:41;5.43;;;4.93;;
7116;SDS011;3600;48.568;7.870;2023-04-06T05:14:08;5.80;;;5.20;;
7116;SDS011;3600;48.568;7.870;2023-04-06T05:16:36;7.20;;;5.40;;
7116;SDS011;3600;48.568;7.870;2023-04-06T05:19:02;6.20;;;5.50;;
7116;SDS011;3600;48.568;7.870;2023-04-06T05:21:29;7.80;;;6.00;;
7116;SDS011;3600;48.568;7.870;2023-04-06T05:23:56;8.70;;;5.93;;
7116;SDS011;3600;48.568;7.870;2023-04-06T05:26:23;11.83;;;10.63;;
7116;SDS011;3600;48.568;7.870;2023-04-06T05:28:51;15.53;;;13.57;;
7116;SDS011;3600;48.568;7.870;2023-04-06T05:31:18;18.27;;;16.43;;
7116;SDS011;3600;48.568;7.870;2023-04-06T05:33:45;23.47;;;21.17;;
7116;SDS011;3600;48.568;7.870;2023-04-06T05:36:12;24.70;;;22.10;;
7116;SDS011;3600;48.568;7.870;2023-04-06T05:38:40;16.40;;;14.80;;
7116;SDS011;3600;48.568;7.870;2023-04-06T05:41:07;14.97;;;13.37;;
7116;SDS011;3600;48.568;7.870;2023-04-06T05:43:34;11.87;;;8.47;;
7116;SDS011;3600;48.568;7.870;2023-04-06T05:46:00;8.90;;;8.07;;
7116;SDS011;3600;48.568;7.870;2023-04-06T05:48:27;8.23;;;6.10;;
7116;SDS011;3600;48.568;7.870;2023-04-06T05:50:54;6.63;;;6.00;;
7116;SDS011;3600;48.568;7.870;2023-04-06T05:53:21;6.17;;;5.53;;
7116;SDS011;3600;48.568;7.870;2023-04-06T05:55:47;7.00;;;6.13;;
7116;SDS011;3600;48.568;7.870;2023-04-06T05:58:14;7.77;;;6.27;;
7116;SDS011;3600;48.568;7.870;2023-04-06T06:00:43;8.53;;;7.73;;
7116;SDS011;3600;48.568;7.870;2023-04-06T06:03:12;9.77;;;6.20;;
7116;SDS011;3600;48.568;7.870;2023-04-06T06:05:39;6.10;;;5.47;;
7116;SDS011;3600;48.568;7.870;2023-04-06T06:08:06;7.40;;;6.00;;
7116;SDS011;3600;48.568;7.870;2023-04-06T06:10:33;10.27;;;7.53;;
7116;SDS011;3600;48.568;7.870;2023-04-06T06:13:00;9.40;;;8.23;;
7116;SDS011;3600;48.568;7.870;2023-04-06T06:15:26;14.57;;;9.33;;
7116;SDS011;3600;48.568;7.870;2023-04-06T06:17:53;14.10;;;8.00;;
7116;SDS011;3600;48.568;7.870;2023-04-06T06:20:20;12.30;;;7.57;;
7116;SDS011;3600;48.568;7.870;2023-04-06T06:22:47;8.10;;;6.40;;
7116;SDS011;3600;48.568;7.870;2023-04-06T06:25:13;11.00;;;6.73;;
7116;SDS011;3600;48.568;7.870;2023-04-06T06:27:42;9.70;;;6.97;;
7116;SDS011;3600;48.568;7.870;2023-04-06T06:30:09;8.67;;;6.43;;
7116;SDS011;3600;48.568;7.870;2023-04-06T06:32:36;7.03;;;6.33;;
7116;SDS011;3600;48.568;7.870;2023-04-06T06:35:03;8.53;;;6.73;;
7116;SDS011;3600;48.568;7.870;2023-04-06T06:37:30;11.33;;;6.93;;
7116;SDS011;3600;48.568;7.870;2023-04-06T06:39:56;9.17;;;6.27;;
7116;SDS011;3600;48.568;7.870;2023-04-06T06:42:23;7.50;;;5.47;;
7116;SDS011;3600;48.568;7.870;2023-04-06T06:44:50;6.67;;;5.97;;
7116;SDS011;3600;48.568;7.870;2023-04-06T06:47:17;8.87;;;5.57;;
7116;SDS011;3600;48.568;7.870;2023-04-06T06:49:44;7.57;;;5.50;;
7116;SDS011;3600;48.568;7.870;2023-04-06T06:52:11;6.37;;;5.50;;
7116;SDS011;3600;48.568;7.870;2023-04-06T06:54:38;7.33;;;5.57;;
7116;SDS011;3600;48.568;7.870;2023-04-06T06:57:04;5.80;;;5.30;;
7116;SDS011;3600;48.568;7.870;2023-04-06T06:59:31;6.30;;;5.53;;
7116;SDS011;3600;48.568;7.870;2023-04-06T07:01:58;5.60;;;5.10;;
7116;SDS011;3600;48.568;7.870;2023-04-06T07:04:25;5.93;;;5.33;;
7116;SDS011;3600;48.568;7.870;2023-04-06T07:06:52;6.57;;;5.20;;
7116;SDS011;3600;48.568;7.870;2023-04-06T07:09:19;6.07;;;5.47;;
7116;SDS011;3600;48.568;7.870;2023-04-06T07:11:46;6.50;;;5.77;;
7116;SDS011;3600;48.568;7.870;2023-04-06T07:14:14;6.33;;;5.73;;
7116;SDS011;3600;48.568;7.870;2023-04-06T07:16:42;5.63;;;5.10;;
7116;SDS011;3600;48.568;7.870;2023-04-06T07:19:11;6.20;;;5.60;;
7116;SDS011;3600;48.568;7.870;2023-04-06T07:21:37;6.20;;;5.40;;
7116;SDS011;3600;48.568;7.870;2023-04-06T07:24:04;6.33;;;5.73;;
7116;SDS011;3600;48.568;7.870;2023-04-06T07:26:31;5.90;;;5.13;;
7116;SDS011;3600;48.568;7.870;2023-04-06T07:28:58;6.20;;;5.07;;
7116;SDS011;3600;48.568;7.870;2023-04-06T07:31:25;7.63;;;5.40;;
7116;SDS011;3600;48.568;7.870;2023-04-06T07:33:52;6.60;;;6.00;;
7116;SDS011;3600;48.568;7.870;2023-04-06T07:36:20;6.57;;;5.73;;
7116;SDS011;3600;48.568;7.870;2023-04-06T07:38:46;6.97;;;5.60;;
7116;SDS011;3600;48.568;7.870;2023-04-06T07:41:13;6.90;;;6.20;;
7116;SDS011;3600;48.568;7.870;2023-04-06T07:43:40;8.37;;;6.30;;
7116;SDS011;3600;48.568;7.870;2023-04-06T07:46:07;7.43;;;5.83;;
7116;SDS011;3600;48.568;7.870;2023-04-06T07:48:34;6.93;;;6.27;;
7116;SDS011;3600;48.568;7.870;2023-04-06T07:51:01;7.17;;;5.90;;
7116;SDS011;3600;48.568;7.870;2023-04-06T07:53:29;6.20;;;5.57;;
7116;SDS011;3600;48.568;7.870;2023-04-06T07:55:57;6.50;;;5.90;;
7116;SDS011;3600;48.568;7.870;2023-04-06T07:58:24;7.73;;;6.07;;
7116;SDS011;3600;48.568;7.870;2023-04-06T08:00:52;9.67;;;6.93;;
7116;SDS011;3600;48.568;7.870;2023-04-06T08:03:19;7.87;;;6.30;;
7116;SDS011;3600;48.568;7.870;2023-04-06T08:05:47;7.43;;;6.63;;
7116;SDS011;3600;48.568;7.870;2023-04-06T08:08:14;7.63;;;6.40;;
7116;SDS011;3600;48.568;7.870;2023-04-06T08:10:41;7.97;;;6.23;;
7116;SDS011;3600;48.568;7.870;2023-04-06T08:13:08;6.90;;;6.20;;
7116;SDS011;3600;48.568;7.870;2023-04-06T08:15:36;9.50;;;6.43;;
7116;SDS011;3600;48.568;7.870;2023-04-06T08:18:03;5.93;;;5.40;;
7116;SDS011;3600;48.568;7.870;2023-04-06T08:20:30;6.90;;;6.20;;
7116;SDS011;3600;48.568;7.870;2023-04-06T08:22:57;6.70;;;6.10;;
7116;SDS011;3600;48.568;7.870;2023-04-06T08:25:24;8.33;;;5.97;;
7116;SDS011;3600;48.568;7.870;2023-04-06T08:27:50;7.13;;;6.43;;
7116;SDS011;3600;48.568;7.870;2023-04-06T08:30:17;7.60;;;6.80;;
7116;SDS011;3600;48.568;7.870;2023-04-06T08:32:45;6.33;;;5.77;;
7116;SDS011;3600;48.568;7.870;2023-04-06T08:35:12;8.47;;;6.63;;
7116;SDS011;3600;48.568;7.870;2023-04-06T08:37:39;7.30;;;6.60;;
7116;SDS011;3600;48.568;7.870;2023-04-06T08:40:07;6.70;;;6.10;;
7116;SDS011;3600;48.568;7.870;2023-04-06T08:42:37;8.07;;;6.63;;
7116;SDS011;3600;48.568;7.870;2023-04-06T08:45:07;9.27;;;6.20;;
7116;SDS011;3600;48.568;7.870;2023-04-06T08:47:35;8.43;;;6.63;;
7116;SDS011;3600;48.568;7.870;2023-04-06T08:50:06;8.40;;;6.17;;
7116;SDS011;3600;48.568;7.870;2023-04-06T08:52:34;8.43;;;6.23;;
7116;SDS011;3600;48.568;7.870;2023-04-06T08:55:01;6.47;;;5.80;;
7116;SDS011;3600;48.568;7.870;2023-04-06T08:57:29;6.70;;;6.00;;
7116;SDS011;3600;48.568;7.870;2023-04-06T08:59:57;8.23;;;6.00;;
7116;SDS011;3600;48.568;7.870;2023-04-06T09:02:27;8.77;;;6.13;;
7116;SDS011;3600;48.568;7.870;2023-04-06T09:04:54;8.17;;;6.80;;
7116;SDS011;3600;48.568;7.870;2023-04-06T09:07:21;11.57;;;7.43;;
7116;SDS011;3600;48.568;7.870;2023-04-06T09:09:48;7.53;;;6.63;;
7116;SDS011;3600;48.568;7.870;2023-04-06T09:12:24;7.60;;;6.80;;
7116;SDS011;3600;48.568;7.870;2023-04-06T09:14:52;6.87;;;6.17;;
7116;SDS011;3600;48.568;7.870;2023-04-06T09:17:24;9.47;;;7.00;;
7116;SDS011;3600;48.568;7.870;2023-04-06T09:19:52;8.73;;;6.50;;
7116;SDS011;3600;48.568;7.870;2023-04-06T09:22:19;6.53;;;5.93;;
7116;SDS011;3600;48.568;7.870;2023-04-06T09:24:48;7.10;;;6.13;;
7116;SDS011;3600;48.568;7.870;2023-04-06T09:27:16;12.17;;;6.50;;
7116;SDS011;3600;48.568;7.870;2023-04-06T09:29:44;7.00;;;6.30;;
7116;SDS011;3600;48.568;7.870;2023-04-06T09:32:11;8.83;;;6.30;;
7116;SDS011;3600;48.568;7.870;2023-04-06T09:34:38;9.10;;;6.90;;
7116;SDS011;3600;48.568;7.870;2023-04-06T09:37:12;6.13;;;5.53;;
7116;SDS011;3600;48.568;7.870;2023-04-06T09:39:40;8.90;;;6.80;;
7116;SDS011;3600;48.568;7.870;2023-04-06T09:42:07;7.77;;;6.50;;
7116;SDS011;3600;48.568;7.870;2023-04-06T09:44:34;7.67;;;6.93;;
7116;SDS011;3600;48.568;7.870;2023-04-06T09:47:01;7.47;;;6.30;;
7116;SDS011;3600;48.568;7.870;2023-04-06T09:49:32;8.20;;;6.23;;
7116;SDS011;3600;48.568;7.870;2023-04-06T09:52:02;6.13;;;5.50;;
7116;SDS011;3600;48.568;7.870;2023-04-06T09:54:30;7.50;;;5.80;;
7116;SDS011;3600;48.568;7.870;2023-04-06T09:57:01;7.47;;;6.10;;
7116;SDS011;3600;48.568;7.870;2023-04-06T10:05:03;6.77;;;6.17;;
7116;SDS011;3600;48.568;7.870;2023-04-06T10:07:35;6.28;;;5.60;;
7116;SDS011;3600;48.568;7.870;2023-04-06T10:10:24;6.85;;;6.00;;
7116;SDS011;3600;48.568;7.870;2023-04-06T10:12:51;7.07;;;5.97;;
7116;SDS011;3600;48.568;7.870;2023-04-06T10:15:18;6.47;;;5.82;;
7116;SDS011;3600;48.568;7.870;2023-04-06T10:17:48;8.27;;;5.18;;
7116;SDS011;3600;48.568;7.870;2023-04-06T10:20:23;5.90;;;5.40;;
7116;SDS011;3600;48.568;7.870;2023-04-06T10:23:14;7.25;;;6.30;;
7116;SDS011;3600;48.568;7.870;2023-04-06T10:26:00;6.60;;;5.25;;
7116;SDS011;3600;48.568;7.870;2023-04-06T10:28:34;7.03;;;5.95;;
7116;SDS011;3600;48.568;7.870;2023-04-06T10:31:04;5.88;;;5.28;;
7116;SDS011;3600;48.568;7.870;2023-04-06T10:33:32;6.80;;;5.50;;
7116;SDS011;3600;48.568;7.870;2023-04-06T10:36:14;6.05;;;5.13;;
7116;SDS011;3600;48.568;7.870;2023-04-06T10:38:53;6.00;;;5.25;;
7116;SDS011;3600;48.568;7.870;2023-04-06T10:41:42;6.25;;;5.63;;
7116;SDS011;3600;48.568;7.870;2023-04-06T10:44:20;5.70;;;4.82;;
7116;SDS011;3600;48.568;7.870;2023-04-06T10:46:58;6.32;;;4.95;;
7116;SDS011;3600;48.568;7.870;2023-04-06T10:49:29;6.22;;;5.22;;
7116;SDS011;3600;48.568;7.870;2023-04-06T10:51:56;5.78;;;5.07;;
7116;SDS011;3600;48.568;7.870;2023-04-06T10:54:24;7.55;;;4.70;;
7116;SDS011;3600;48.568;7.870;2023-04-06T10:56:52;4.85;;;4.15;;
7116;SDS011;3600;48.568;7.870;2023-04-06T10:59:20;4.43;;;3.97;;
7116;SDS011;3600;48.568;7.870;2023-04-06T11:01:48;3.85;;;3.33;;
7116;SDS011;3600;48.568;7.870;2023-04-06T11:04:16;4.38;;;3.90;;
7116;SDS011;3600;48.568;7.870;2023-04-06T11:06:47;3.67;;;3.38;;
7116;SDS011;3600;48.568;7.870;2023-04-06T11:09:25;4.70;;;3.78;;
7116;SDS011;3600;48.568;7.870;2023-04-06T11:11:57;5.25;;;3.92;;
7116;SDS011;3600;48.568;7.870;2023-04-06T11:14:24;4.57;;;3.75;;
7116;SDS011;3600;48.568;7.870;2023-04-06T11:16:53;5.20;;;4.00;;
7116;SDS011;3600;48.568;7.870;2023-04-06T11:19:20;4.93;;;4.45;;
7116;SDS011;3600;48.568;7.870;2023-04-06T11:21:47;6.15;;;4.50;;
7116;SDS011;3600;48.568;7.870;2023-04-06T11:24:15;5.50;;;4.70;;
7116;SDS011;3600;48.568;7.870;2023-04-06T11:26:56;5.32;;;4.47;;
7116;SDS011;3600;48.568;7.870;2023-04-06T11:29:28;5.32;;;4.72;;
7116;SDS011;3600;48.568;7.870;2023-04-06T11:32:00;6.13;;;4.80;;
7116;SDS011;3600;48.568;7.870;2023-04-06T11:34:35;6.03;;;4.82;;
7116;SDS011;3600;48.568;7.870;2023-04-06T11:37:04;6.93;;;5.40;;
7116;SDS011;3600;48.568;7.870;2023-04-06T11:39:38;7.07;;;5.00;;
7116;SDS011;3600;48.568;7.870;2023-04-06T11:42:24;9.43;;;6.03;;
7116;SDS011;3600;48.568;7.870;2023-04-06T11:44:56;6.82;;;5.43;;
7116;SDS011;3600;48.568;7.870;2023-04-06T11:47:27;7.13;;;5.30;;
7116;SDS011;3600;48.568;7.870;2023-04-06T11:49:55;6.43;;;5.30;;
7116;SDS011;3600;48.568;7.870;2023-04-06T11:52:27;5.90;;;4.95;;
7116;SDS011;3600;48.568;7.870;2023-04-06T11:54:54;5.55;;;4.93;;
7116;SDS011;3600;48.568;7.870;2023-04-06T11:57:23;7.68;;;5.38;;
7116;SDS011;3600;48.568;7.870;2023-04-06T11:59:51;7.30;;;5.60;;
7116;SDS011;3600;48.568;7.870;2023-04-06T12:02:18;5.85;;;5.25;;
7116;SDS011;3600;48.568;7.870;2023-04-06T12:04:45;9.23;;;5.50;;
7116;SDS011;3600;48.568;7.870;2023-04-06T12:07:12;6.53;;;5.13;;
7116;SDS011;3600;48.568;7.870;2023-04-06T12:09:39;6.93;;;4.90;;
7116;SDS011;3600;48.568;7.870;2023-04-06T12:12:06;7.40;;;5.32;;
7116;SDS011;3600;48.568;7.870;2023-04-06T12:14:33;5.95;;;4.72;;
7116;SDS011;3600;48.568;7.870;2023-04-06T12:16:59;5.80;;;5.18;;
7116;SDS011;3600;48.568;7.870;2023-04-06T12:19:26;5.10;;;4.60;;
7116;SDS011;3600;48.568;7.870;2023-04-06T12:21:55;4.95;;;4.32;;
7116;SDS011;3600;48.568;7.870;2023-04-06T12:24:23;6.53;;;5.43;;
7116;SDS011;3600;48.568;7.870;2023-04-06T12:26:50;7.40;;;4.97;;
7116;SDS011;3600;48.568;7.870;2023-04-06T12:29:28;5.47;;;4.38;;
7116;SDS011;3600;48.568;7.870;2023-04-06T12:31:55;5.95;;;4.45;;
7116;SDS011;3600;48.568;7.870;2023-04-06T12:34:22;5.32;;;4.50;;
7116;SDS011;3600;48.568;7.870;2023-04-06T12:36:49;5.63;;;4.65;;
7116;SDS011;3600;48.568;7.870;2023-04-06T12:39:16;7.03;;;4.93;;
7116;SDS011;3600;48.568;7.870;2023-04-06T12:41:46;7.30;;;4.40;;
7116;SDS011;3600;48.568;7.870;2023-04-06T12:44:13;5.93;;;4.50;;
7116;SDS011;3600;48.568;7.870;2023-04-06T12:46:40;5.40;;;4.40;;
7116;SDS011;3600;48.568;7.870;2023-04-06T12:49:09;5.97;;;4.35;;
7116;SDS011;3600;48.568;7.870;2023-04-06T12:51:36;5.30;;;4.80;;
7116;SDS011;3600;48.568;7.870;2023-04-06T12:54:03;6.18;;;4.18;;
7116;SDS011;3600;48.568;7.870;2023-04-06T12:56:30;5.47;;;4.82;;
7116;SDS011;3600;48.568;7.870;2023-04-06T12:58:57;4.80;;;4.22;;
7116;SDS011;3600;48.568;7.870;2023-04-06T13:01:24;4.75;;;4.32;;
7116;SDS011;3600;48.568;7.870;2023-04-06T13:03:51;6.18;;;4.78;;
7116;SDS011;3600;48.568;7.870;2023-04-06T13:06:18;6.15;;;4.75;;
7116;SDS011;3600;48.568;7.870;2023-04-06T13:08:45;5.30;;;4.57;;
7116;SDS011;3600;48.568;7.870;2023-04-06T13:11:13;4.97;;;4.35;;
7116;SDS011;3600;48.568;7.870;2023-04-06T13:13:40;7.13;;;4.93;;
7116;SDS011;3600;48.568;7.870;2023-04-06T13:16:07;8.88;;;4.80;;
7116;SDS011;3600;48.568;7.870;2023-04-06T13:18:35;6.63;;;5.10;;
7116;SDS011;3600;48.568;7.870;2023-04-06T13:21:05;7.97;;;5.68;;
7116;SDS011;3600;48.568;7.870;2023-04-06T13:23:32;6.13;;;5.28;;
7116;SDS011;3600;48.568;7.870;2023-04-06T13:26:01;5.85;;;5.28;;
7116;SDS011;3600;48.568;7.870;2023-04-06T13:28:29;5.97;;;4.85;;
7116;SDS011;3600;48.568;7.870;2023-04-06T13:30:57;6.30;;;4.93;;
7116;SDS011;3600;48.568;7.870;2023-04-06T13:33:25;5.65;;;5.15;;
7116;SDS011;3600;48.568;7.870;2023-04-06T13:35:52;7.95;;;4.82;;
7116;SDS011;3600;48.568;7.870;2023-04-06T13:38:19;7.22;;;5.43;;
7116;SDS011;3600;48.568;7.870;2023-04-06T13:40:46;5.10;;;4.35;;
7116;SDS011;3600;48.568;7.870;2023-04-06T13:43:13;6.13;;;4.57;;
7116;SDS011;3600;48.568;7.870;2023-04-06T13:45:40;6.40;;;4.85;;
7116;SDS011;3600;48.568;7.870;2023-04-06T13:48:07;5.30;;;4.38;;
7116;SDS011;3600;48.568;7.870;2023-04-06T13:50:33;6.05;;;5.03;;
7116;SDS011;3600;48.568;7.870;2023-04-06T13:53:01;6.95;;;5.03;;
7116;SDS011;3600;48.568;7.870;2023-04-06T13:55:27;5.63;;;4.95;;
7116;SDS011;3600;48.568;7.870;2023-04-06T13:57:54;5.85;;;4.90;;
7116;SDS011;3600;48.568;7.870;2023-04-06T14:00:21;6.40;;;4.63;;
7116;SDS011;3600;48.568;7.870;2023-04-06T14:02:48;4.82;;;4.43;;
7116;SDS011;3600;48.568;7.870;2023-04-06T14:05:15;6.30;;;4.90;;
7116;SDS011;3600;48.568;7.870;2023-04-06T14:07:43;7.00;;;4.85;;
7116;SDS011;3600;48.568;7.870;2023-04-06T14:10:10;5.90;;;4.03;;
7116;SDS011;3600;48.568;7.870;2023-04-06T14:12:42;5.15;;;4.65;;
7116;SDS011;3600;48.568;7.870;2023-04-06T14:15:12;5.78;;;4.80;;
7116;SDS011;3600;48.568;7.870;2023-04-06T14:17:39;6.55;;;4.43;;
7116;SDS011;3600;48.568;7.870;2023-04-06T14:20:06;5.13;;;4.63;;
7116;SDS011;3600;48.568;7.870;2023-04-06T14:22:34;5.47;;;4.40;;
7116;SDS011;3600;48.568;7.870;2023-04-06T14:25:01;5.72;;;4.32;;
7116;SDS011;3600;48.568;7.870;2023-04-06T14:27:28;5.20;;;4.65;;
7116;SDS011;3600;48.568;7.870;2023-04-06T14:29:55;7.85;;;4.47;;
7116;SDS011;3600;48.568;7.870;2023-04-06T14:32:22;5.18;;;4.07;;
7116;SDS011;3600;48.568;7.870;2023-04-06T14:34:50;5.88;;;4.68;;
7116;SDS011;3600;48.568;7.870;2023-04-06T14:37:17;4.20;;;3.80;;
7116;SDS011;3600;48.568;7.870;2023-04-06T14:39:44;5.30;;;4.47;;
7116;SDS011;3600;48.568;7.870;2023-04-06T14:42:11;6.43;;;5.25;;
7116;SDS011;3600;48.568;7.870;2023-04-06T14:44:38;5.72;;;4.30;;
7116;SDS011;3600;48.568;7.870;2023-04-06T14:47:09;6.30;;;3.92;;
7116;SDS011;3600;48.568;7.870;2023-04-06T14:49:36;4.85;;;4.20;;
7116;SDS011;3600;48.568;7.870;2023-04-06T14:52:03;5.22;;;4.25;;
7116;SDS011;3600;48.568;7.870;2023-04-06T14:54:30;5.18;;;3.65;;
7116;SDS011;3600;48.568;7.870;2023-04-06T14:56:57;5.43;;;3.88;;
7116;SDS011;3600;48.568;7.870;2023-04-06T14:59:23;5.57;;;3.65;;
7116;SDS011;3600;48.568;7.870;2023-04-06T15:01:50;4.22;;;3.55;;
7116;SDS011;3600;48.568;7.870;2023-04-06T15:04:17;3.90;;;3.50;;
7116;SDS011;3600;48.568;7.870;2023-04-06T15:06:44;7.40;;;6.03;;
7116;SDS011;3600;48.568;7.870;2023-04-06T15:09:11;7.65;;;6.55;;
7116;SDS011;3600;48.568;7.870;2023-04-06T15:11:38;4.90;;;3.33;;
7116;SDS011;3600;48.568;7.870;2023-04-06T15:14:05;3.53;;;3.05;;
7116;SDS011;3600;48.568;7.870;2023-04-06T15:16:32;3.53;;;3.20;;
7116;SDS011;3600;48.568;7.870;2023-04-06T15:18:59;14.23;;;10.00;;
7116;SDS011;3600;48.568;7.870;2023-04-06T15:21:27;6.68;;;5.05;;
7116;SDS011;3600;48.568;7.870;2023-04-06T15:23:54;7.38;;;5.05;;